Airport Name : Roi Et

Other Name : Roi Et

ICAO : VTUV

IATA : ROI

FAA :

Latitude : 16.116761

Longitude : 103.773797

Country : Thailand

Local Date and Time : 5/25/2018 5:56:00 PM

 

TAF (Terminal Aerodrome Forecast)

TAF VTUV 250500Z 2506/2606 18006KT 9000 SCT025 BKN100

 

METAR (METeorological Aerodrome Report)

VTUV 251000Z 18005KT 130V200 9000 SCT025 34/23 Q1005 NOSIG

VTUV 250900Z 17006KT 9999 SCT025 BKN100 35/23 Q1005 NOSIG

VTUV 250800Z 20004KT 160V220 9999 SCT025 BKN100 34/23 Q1006 NOSIG

VTUV 250700Z VRB04KT 9999 SCT025 33/23 Q1007 NOSIG